sensor_id;sensor_type;location;lat;lon;timestamp;noise_LAeq;noise_LA_min;noise_LA_max;noise_LA01;noise_LA95
67324;Laerm;57667;51.438;5.968;2023-02-26T00:00:03;40.62;30.48;56.63;;
67324;Laerm;57667;51.438;5.968;2023-02-26T00:00:17;33.91;31.17;41.37;;
67324;Laerm;57667;51.438;5.968;2023-02-26T00:00:30;40.30;30.20;58.00;;
67324;Laerm;57667;51.438;5.968;2023-02-26T00:00:40;36.04;29.90;51.79;;
67324;Laerm;57667;51.438;5.968;2023-02-26T00:00:50;37.40;30.06;52.50;;
67324;Laerm;57667;51.438;5.968;2023-02-26T00:01:01;39.85;30.27;56.41;;
67324;Laerm;57667;51.438;5.968;2023-02-26T00:01:12;34.94;29.87;51.61;;
67324;Laerm;57667;51.438;5.968;2023-02-26T00:01:26;42.28;29.74;57.42;;
67324;Laerm;57667;51.438;5.968;2023-02-26T00:01:37;41.03;29.46;57.56;;
67324;Laerm;57667;51.438;5.968;2023-02-26T00:01:47;35.52;29.51;52.21;;
67324;Laerm;57667;51.438;5.968;2023-02-26T00:01:59;38.72;29.81;53.12;;
67324;Laerm;57667;51.438;5.968;2023-02-26T00:02:11;36.86;30.26;55.19;;
67324;Laerm;57667;51.438;5.968;2023-02-26T00:02:21;35.19;29.90;52.50;;
67324;Laerm;57667;51.438;5.968;2023-02-26T00:02:31;37.84;30.71;54.07;;
67324;Laerm;57667;51.438;5.968;2023-02-26T00:02:42;37.07;30.57;52.79;;
67324;Laerm;57667;51.438;5.968;2023-02-26T00:02:55;35.22;30.47;51.39;;
67324;Laerm;57667;51.438;5.968;2023-02-26T00:03:05;32.21;30.32;36.34;;
67324;Laerm;57667;51.438;5.968;2023-02-26T00:03:15;36.19;30.10;54.30;;
67324;Laerm;57667;51.438;5.968;2023-02-26T00:03:26;34.37;30.02;49.67;;
67324;Laerm;57667;51.438;5.968;2023-02-26T00:03:36;36.92;29.86;53.34;;
67324;Laerm;57667;51.438;5.968;2023-02-26T00:03:50;33.36;29.69;51.58;;
67324;Laerm;57667;51.438;5.968;2023-02-26T00:04:01;31.15;29.97;32.82;;
67324;Laerm;57667;51.438;5.968;2023-02-26T00:04:12;35.78;29.74;49.35;;
67324;Laerm;57667;51.438;5.968;2023-02-26T00:04:22;34.33;29.82;50.08;;
67324;Laerm;57667;51.438;5.968;2023-02-26T00:04:32;31.00;29.79;32.39;;
67324;Laerm;57667;51.438;5.968;2023-02-26T00:04:43;31.25;29.82;40.26;;
67324;Laerm;57667;51.438;5.968;2023-02-26T00:04:53;40.07;29.84;55.27;;
67324;Laerm;57667;51.438;5.968;2023-02-26T00:05:04;39.74;30.11;53.53;;
67324;Laerm;57667;51.438;5.968;2023-02-26T00:05:15;39.07;30.65;53.67;;
67324;Laerm;57667;51.438;5.968;2023-02-26T00:05:25;39.87;31.81;54.06;;
67324;Laerm;57667;51.438;5.968;2023-02-26T00:05:35;45.51;36.72;55.36;;
67324;Laerm;57667;51.438;5.968;2023-02-26T00:05:46;54.39;43.86;58.96;;
67324;Laerm;57667;51.438;5.968;2023-02-26T00:05:59;43.97;38.17;55.26;;
67324;Laerm;57667;51.438;5.968;2023-02-26T00:06:10;40.46;32.60;54.18;;
67324;Laerm;57667;51.438;5.968;2023-02-26T00:06:21;40.20;32.56;58.31;;
67324;Laerm;57667;51.438;5.968;2023-02-26T00:06:33;38.84;31.10;54.69;;
67324;Laerm;57667;51.438;5.968;2023-02-26T00:06:43;33.74;31.00;48.62;;
67324;Laerm;57667;51.438;5.968;2023-02-26T00:07:04;40.31;30.51;54.70;;
67324;Laerm;57667;51.438;5.968;2023-02-26T00:07:15;35.75;30.37;52.10;;
67324;Laerm;57667;51.438;5.968;2023-02-26T00:07:25;35.11;30.38;49.75;;
67324;Laerm;57667;51.438;5.968;2023-02-26T00:07:38;42.79;30.20;54.60;;
67324;Laerm;57667;51.438;5.968;2023-02-26T00:07:48;33.99;30.30;48.79;;
67324;Laerm;57667;51.438;5.968;2023-02-26T00:07:59;37.91;30.17;54.05;;
67324;Laerm;57667;51.438;5.968;2023-02-26T00:08:09;34.69;30.13;51.06;;
67324;Laerm;57667;51.438;5.968;2023-02-26T00:08:19;37.06;30.11;50.74;;
67324;Laerm;57667;51.438;5.968;2023-02-26T00:08:29;33.01;30.17;49.28;;
67324;Laerm;57667;51.438;5.968;2023-02-26T00:08:40;32.21;30.22;46.77;;
67324;Laerm;57667;51.438;5.968;2023-02-26T00:08:50;34.33;29.91;51.92;;
67324;Laerm;57667;51.438;5.968;2023-02-26T00:09:02;34.25;29.69;49.36;;
67324;Laerm;57667;51.438;5.968;2023-02-26T00:09:12;38.42;29.88;55.68;;
67324;Laerm;57667;51.438;5.968;2023-02-26T00:09:23;34.66;30.27;51.26;;
67324;Laerm;57667;51.438;5.968;2023-02-26T00:09:33;32.98;30.15;48.19;;
67324;Laerm;57667;51.438;5.968;2023-02-26T00:09:43;37.03;30.14;51.85;;
67324;Laerm;57667;51.438;5.968;2023-02-26T00:09:54;37.09;31.16;51.85;;
67324;Laerm;57667;51.438;5.968;2023-02-26T00:10:05;35.99;31.07;49.81;;
67324;Laerm;57667;51.438;5.968;2023-02-26T00:10:16;37.71;30.93;54.63;;
67324;Laerm;57667;51.438;5.968;2023-02-26T00:10:26;34.21;30.46;48.73;;
67324;Laerm;57667;51.438;5.968;2023-02-26T00:10:37;34.15;31.02;49.83;;
67324;Laerm;57667;51.438;5.968;2023-02-26T00:10:47;33.33;30.61;36.92;;
67324;Laerm;57667;51.438;5.968;2023-02-26T00:10:57;32.60;30.39;43.70;;
67324;Laerm;57667;51.438;5.968;2023-02-26T00:11:11;36.33;29.77;50.34;;
67324;Laerm;57667;51.438;5.968;2023-02-26T00:11:21;31.38;29.90;33.19;;
67324;Laerm;57667;51.438;5.968;2023-02-26T00:11:32;33.10;30.35;48.70;;
67324;Laerm;57667;51.438;5.968;2023-02-26T00:11:42;34.45;30.11;49.52;;
67324;Laerm;57667;51.438;5.968;2023-02-26T00:11:53;34.65;29.97;50.02;;
67324;Laerm;57667;51.438;5.968;2023-02-26T00:12:03;32.66;30.27;45.85;;
67324;Laerm;57667;51.438;5.968;2023-02-26T00:12:14;34.06;30.24;49.88;;
67324;Laerm;57667;51.438;5.968;2023-02-26T00:12:24;33.63;29.97;48.92;;
67324;Laerm;57667;51.438;5.968;2023-02-26T00:12:35;31.32;29.90;32.54;;
67324;Laerm;57667;51.438;5.968;2023-02-26T00:12:46;35.14;31.07;50.37;;
67324;Laerm;57667;51.438;5.968;2023-02-26T00:12:56;35.47;32.62;47.99;;
67324;Laerm;57667;51.438;5.968;2023-02-26T00:13:07;41.42;35.04;51.51;;
67324;Laerm;57667;51.438;5.968;2023-02-26T00:13:18;52.00;43.30;58.27;;
67324;Laerm;57667;51.438;5.968;2023-02-26T00:13:28;40.15;35.73;51.71;;
67324;Laerm;57667;51.438;5.968;2023-02-26T00:13:39;36.29;31.10;39.71;;
67324;Laerm;57667;51.438;5.968;2023-02-26T00:13:50;35.62;30.90;49.82;;
67324;Laerm;57667;51.438;5.968;2023-02-26T00:14:01;32.45;30.24;45.79;;
67324;Laerm;57667;51.438;5.968;2023-02-26T00:14:12;32.50;29.97;35.44;;
67324;Laerm;57667;51.438;5.968;2023-02-26T00:14:23;36.49;30.10;51.52;;
67324;Laerm;57667;51.438;5.968;2023-02-26T00:14:34;32.49;29.74;47.02;;
67324;Laerm;57667;51.438;5.968;2023-02-26T00:14:44;31.08;29.74;32.66;;
67324;Laerm;57667;51.438;5.968;2023-02-26T00:14:55;37.60;30.07;53.72;;
67324;Laerm;57667;51.438;5.968;2023-02-26T00:15:06;30.81;29.69;33.05;;
67324;Laerm;57667;51.438;5.968;2023-02-26T00:15:17;37.49;30.00;50.15;;
67324;Laerm;57667;51.438;5.968;2023-02-26T00:15:28;30.91;29.58;32.35;;
67324;Laerm;57667;51.438;5.968;2023-02-26T00:15:38;30.73;29.60;32.05;;
67324;Laerm;57667;51.438;5.968;2023-02-26T00:15:49;31.11;29.56;38.49;;
67324;Laerm;57667;51.438;5.968;2023-02-26T00:16:08;32.13;29.68;46.69;;
67324;Laerm;57667;51.438;5.968;2023-02-26T00:16:29;31.31;29.98;33.09;;
67324;Laerm;57667;51.438;5.968;2023-02-26T00:16:41;31.57;29.97;36.33;;
67324;Laerm;57667;51.438;5.968;2023-02-26T00:16:57;35.17;31.60;49.62;;
67324;Laerm;57667;51.438;5.968;2023-02-26T00:17:28;31.89;30.07;33.41;;
67324;Laerm;57667;51.438;5.968;2023-02-26T00:17:43;31.91;30.36;35.85;;
67324;Laerm;57667;51.438;5.968;2023-02-26T00:18:12;32.09;30.47;33.97;;
67324;Laerm;57667;51.438;5.968;2023-02-26T00:18:24;31.58;30.12;34.94;;
67324;Laerm;57667;51.438;5.968;2023-02-26T00:18:35;30.76;29.53;31.88;;
67324;Laerm;57667;51.438;5.968;2023-02-26T00:18:45;31.11;29.58;32.68;;
67324;Laerm;57667;51.438;5.968;2023-02-26T00:18:56;30.94;29.56;32.31;;
67324;Laerm;57667;51.438;5.968;2023-02-26T00:19:09;30.88;29.61;32.17;;
67324;Laerm;57667;51.438;5.968;2023-02-26T00:19:20;30.99;29.68;33.19;;
67324;Laerm;57667;51.438;5.968;2023-02-26T00:19:30;30.74;29.47;32.02;;
67324;Laerm;57667;51.438;5.968;2023-02-26T00:19:41;30.84;29.75;32.15;;
67324;Laerm;57667;51.438;5.968;2023-02-26T00:19:51;31.30;29.85;32.96;;
67324;Laerm;57667;51.438;5.968;2023-02-26T00:20:03;31.33;30.06;33.20;;
67324;Laerm;57667;51.438;5.968;2023-02-26T00:20:13;31.56;30.13;32.98;;
67324;Laerm;57667;51.438;5.968;2023-02-26T00:20:25;31.63;30.35;33.41;;
67324;Laerm;57667;51.438;5.968;2023-02-26T00:20:36;32.00;30.07;33.78;;
67324;Laerm;57667;51.438;5.968;2023-02-26T00:20:46;32.76;29.90;38.01;;
67324;Laerm;57667;51.438;5.968;2023-02-26T00:20:57;31.42;29.95;35.74;;
67324;Laerm;57667;51.438;5.968;2023-02-26T00:21:07;31.50;29.85;35.39;;
67324;Laerm;57667;51.438;5.968;2023-02-26T00:21:24;32.82;30.54;38.44;;
67324;Laerm;57667;51.438;5.968;2023-02-26T00:21:35;32.11;29.93;35.33;;
67324;Laerm;57667;51.438;5.968;2023-02-26T00:21:46;35.74;31.83;42.15;;
67324;Laerm;57667;51.438;5.968;2023-02-26T00:21:56;34.67;31.66;39.78;;
67324;Laerm;57667;51.438;5.968;2023-02-26T00:22:07;34.62;30.65;42.22;;
67324;Laerm;57667;51.438;5.968;2023-02-26T00:22:17;33.84;30.06;40.42;;
67324;Laerm;57667;51.438;5.968;2023-02-26T00:22:27;31.82;30.34;34.20;;
67324;Laerm;57667;51.438;5.968;2023-02-26T00:22:38;32.02;30.55;33.63;;
67324;Laerm;57667;51.438;5.968;2023-02-26T00:22:49;31.38;30.10;32.61;;
67324;Laerm;57667;51.438;5.968;2023-02-26T00:22:59;32.23;30.34;39.26;;
67324;Laerm;57667;51.438;5.968;2023-02-26T00:23:12;31.93;30.35;34.36;;
67324;Laerm;57667;51.438;5.968;2023-02-26T00:23:26;31.64;30.03;34.22;;
67324;Laerm;57667;51.438;5.968;2023-02-26T00:23:37;30.95;29.69;32.70;;
67324;Laerm;57667;51.438;5.968;2023-02-26T00:23:47;30.85;29.93;31.96;;
67324;Laerm;57667;51.438;5.968;2023-02-26T00:23:57;30.89;29.43;33.33;;
67324;Laerm;57667;51.438;5.968;2023-02-26T00:24:09;30.83;29.33;32.14;;
67324;Laerm;57667;51.438;5.968;2023-02-26T00:24:19;30.94;29.64;34.23;;
67324;Laerm;57667;51.438;5.968;2023-02-26T00:24:30;31.20;29.95;33.01;;
67324;Laerm;57667;51.438;5.968;2023-02-26T00:24:40;31.15;30.03;33.22;;
67324;Laerm;57667;51.438;5.968;2023-02-26T00:24:51;31.27;29.92;32.79;;
67324;Laerm;57667;51.438;5.968;2023-02-26T00:25:01;31.13;29.65;32.44;;
67324;Laerm;57667;51.438;5.968;2023-02-26T00:25:12;30.98;29.55;32.26;;
67324;Laerm;57667;51.438;5.968;2023-02-26T00:25:23;31.48;30.02;33.39;;
67324;Laerm;57667;51.438;5.968;2023-02-26T00:25:33;31.43;29.97;33.12;;
67324;Laerm;57667;51.438;5.968;2023-02-26T00:25:44;31.92;30.34;33.55;;
67324;Laerm;57667;51.438;5.968;2023-02-26T00:25:54;31.25;29.89;33.83;;
67324;Laerm;57667;51.438;5.968;2023-02-26T00:26:04;31.15;29.86;32.45;;
67324;Laerm;57667;51.438;5.968;2023-02-26T00:26:15;31.86;30.33;33.63;;
67324;Laerm;57667;51.438;5.968;2023-02-26T00:26:25;32.32;30.68;37.23;;
67324;Laerm;57667;51.438;5.968;2023-02-26T00:26:36;32.32;30.55;42.57;;
67324;Laerm;57667;51.438;5.968;2023-02-26T00:26:46;32.20;30.86;33.72;;
67324;Laerm;57667;51.438;5.968;2023-02-26T00:26:56;32.23;30.90;34.34;;
67324;Laerm;57667;51.438;5.968;2023-02-26T00:27:08;33.67;31.41;35.62;;
67324;Laerm;57667;51.438;5.968;2023-02-26T00:27:19;36.55;34.16;39.88;;
67324;Laerm;57667;51.438;5.968;2023-02-26T00:27:29;51.86;37.07;57.20;;
67324;Laerm;57667;51.438;5.968;2023-02-26T00:27:40;46.35;36.97;55.20;;
67324;Laerm;57667;51.438;5.968;2023-02-26T00:27:51;39.16;32.59;44.56;;
67324;Laerm;57667;51.438;5.968;2023-02-26T00:28:01;32.81;31.11;34.79;;
67324;Laerm;57667;51.438;5.968;2023-02-26T00:28:12;32.01;30.03;33.91;;
67324;Laerm;57667;51.438;5.968;2023-02-26T00:28:22;31.45;29.95;32.80;;
67324;Laerm;57667;51.438;5.968;2023-02-26T00:28:33;31.94;30.07;34.30;;
67324;Laerm;57667;51.438;5.968;2023-02-26T00:28:43;32.17;30.84;33.79;;
67324;Laerm;57667;51.438;5.968;2023-02-26T00:28:54;32.80;31.08;34.98;;
67324;Laerm;57667;51.438;5.968;2023-02-26T00:29:05;31.51;30.13;32.78;;
67324;Laerm;57667;51.438;5.968;2023-02-26T00:29:15;31.63;29.98;34.07;;
67324;Laerm;57667;51.438;5.968;2023-02-26T00:29:25;32.11;30.02;35.85;;
67324;Laerm;57667;51.438;5.968;2023-02-26T00:29:36;32.04;30.48;34.15;;
67324;Laerm;57667;51.438;5.968;2023-02-26T00:29:47;31.57;30.10;33.00;;
67324;Laerm;57667;51.438;5.968;2023-02-26T00:29:57;31.31;29.83;33.28;;
67324;Laerm;57667;51.438;5.968;2023-02-26T00:30:08;31.57;30.20;33.55;;
67324;Laerm;57667;51.438;5.968;2023-02-26T00:30:19;31.39;29.88;32.93;;
67324;Laerm;57667;51.438;5.968;2023-02-26T00:30:29;31.51;29.76;33.43;;
67324;Laerm;57667;51.438;5.968;2023-02-26T00:30:40;31.22;30.19;32.76;;
67324;Laerm;57667;51.438;5.968;2023-02-26T00:30:50;31.66;29.99;33.42;;
67324;Laerm;57667;51.438;5.968;2023-02-26T00:31:01;32.64;30.79;37.07;;
67324;Laerm;57667;51.438;5.968;2023-02-26T00:31:13;32.04;30.22;33.62;;
67324;Laerm;57667;51.438;5.968;2023-02-26T00:31:23;31.78;30.14;33.82;;
67324;Laerm;57667;51.438;5.968;2023-02-26T00:31:34;31.40;29.89;33.51;;
67324;Laerm;57667;51.438;5.968;2023-02-26T00:31:44;31.44;30.00;33.78;;
67324;Laerm;57667;51.438;5.968;2023-02-26T00:31:55;31.18;29.91;32.49;;
67324;Laerm;57667;51.438;5.968;2023-02-26T00:32:05;30.85;29.61;32.23;;
67324;Laerm;57667;51.438;5.968;2023-02-26T00:32:16;31.00;29.81;32.21;;
67324;Laerm;57667;51.438;5.968;2023-02-26T00:32:29;31.06;29.40;33.20;;
67324;Laerm;57667;51.438;5.968;2023-02-26T00:32:40;30.97;29.82;32.58;;
67324;Laerm;57667;51.438;5.968;2023-02-26T00:32:50;30.75;29.67;32.94;;
67324;Laerm;57667;51.438;5.968;2023-02-26T00:33:01;30.73;29.38;31.76;;
67324;Laerm;57667;51.438;5.968;2023-02-26T00:33:12;31.00;29.70;32.63;;
67324;Laerm;57667;51.438;5.968;2023-02-26T00:33:22;30.94;29.82;32.26;;
67324;Laerm;57667;51.438;5.968;2023-02-26T00:33:33;31.14;29.98;32.31;;
67324;Laerm;57667;51.438;5.968;2023-02-26T00:33:44;31.12;29.91;32.46;;
67324;Laerm;57667;51.438;5.968;2023-02-26T00:33:54;32.04;30.34;33.81;;
67324;Laerm;57667;51.438;5.968;2023-02-26T00:34:05;35.46;30.91;40.07;;
67324;Laerm;57667;51.438;5.968;2023-02-26T00:34:16;33.68;29.79;39.62;;
67324;Laerm;57667;51.438;5.968;2023-02-26T00:34:26;30.84;29.54;32.03;;
67324;Laerm;57667;51.438;5.968;2023-02-26T00:34:37;30.87;29.82;32.91;;
67324;Laerm;57667;51.438;5.968;2023-02-26T00:34:47;30.76;29.44;31.98;;
67324;Laerm;57667;51.438;5.968;2023-02-26T00:34:58;30.82;29.59;32.42;;
67324;Laerm;57667;51.438;5.968;2023-02-26T00:35:10;30.73;29.42;32.29;;
67324;Laerm;57667;51.438;5.968;2023-02-26T00:35:21;31.26;29.84;32.75;;
67324;Laerm;57667;51.438;5.968;2023-02-26T00:35:32;31.60;30.35;33.05;;
67324;Laerm;57667;51.438;5.968;2023-02-26T00:35:42;31.24;30.10;32.59;;
67324;Laerm;57667;51.438;5.968;2023-02-26T00:35:55;30.90;29.77;32.45;;
67324;Laerm;57667;51.438;5.968;2023-02-26T00:38:11;31.21;30.01;32.63;;
67324;Laerm;57667;51.438;5.968;2023-02-26T00:38:24;30.88;29.56;32.65;;
67324;Laerm;57667;51.438;5.968;2023-02-26T00:38:35;30.89;29.83;32.47;;
67324;Laerm;57667;51.438;5.968;2023-02-26T00:40:02;30.83;29.60;32.42;;
67324;Laerm;57667;51.438;5.968;2023-02-26T00:40:44;31.17;29.94;32.67;;
67324;Laerm;57667;51.438;5.968;2023-02-26T00:40:55;31.26;30.02;32.46;;
67324;Laerm;57667;51.438;5.968;2023-02-26T00:41:06;31.52;29.80;32.78;;
67324;Laerm;57667;51.438;5.968;2023-02-26T00:41:17;30.99;29.78;32.35;;
67324;Laerm;57667;51.438;5.968;2023-02-26T00:41:28;31.06;29.71;32.54;;
67324;Laerm;57667;51.438;5.968;2023-02-26T00:41:38;30.92;29.68;32.29;;
67324;Laerm;57667;51.438;5.968;2023-02-26T00:41:49;30.89;29.51;32.23;;
67324;Laerm;57667;51.438;5.968;2023-02-26T00:41:59;31.14;29.88;35.50;;
67324;Laerm;57667;51.438;5.968;2023-02-26T00:42:10;30.87;29.72;32.07;;
67324;Laerm;57667;51.438;5.968;2023-02-26T00:42:21;31.04;29.91;32.33;;
67324;Laerm;57667;51.438;5.968;2023-02-26T00:42:31;30.97;29.72;32.68;;
67324;Laerm;57667;51.438;5.968;2023-02-26T00:42:42;31.20;30.15;32.91;;
67324;Laerm;57667;51.438;5.968;2023-02-26T00:42:52;31.42;30.05;32.82;;
67324;Laerm;57667;51.438;5.968;2023-02-26T00:43:03;31.10;29.82;32.64;;
67324;Laerm;57667;51.438;5.968;2023-02-26T00:43:18;31.05;29.51;32.37;;
67324;Laerm;57667;51.438;5.968;2023-02-26T00:43:28;31.68;30.08;34.25;;
67324;Laerm;57667;51.438;5.968;2023-02-26T00:43:39;31.47;29.89;33.02;;
67324;Laerm;57667;51.438;5.968;2023-02-26T00:43:49;31.45;30.16;32.77;;
67324;Laerm;57667;51.438;5.968;2023-02-26T00:44:00;32.51;30.63;34.73;;
67324;Laerm;57667;51.438;5.968;2023-02-26T00:44:10;32.02;30.14;35.02;;
67324;Laerm;57667;51.438;5.968;2023-02-26T00:44:21;32.07;30.10;35.79;;
67324;Laerm;57667;51.438;5.968;2023-02-26T00:44:31;33.28;31.47;36.01;;
67324;Laerm;57667;51.438;5.968;2023-02-26T00:44:42;31.98;29.81;33.95;;
67324;Laerm;57667;51.438;5.968;2023-02-26T00:44:52;30.75;29.42;32.33;;
67324;Laerm;57667;51.438;5.968;2023-02-26T00:45:03;31.10;29.60;32.19;;
67324;Laerm;57667;51.438;5.968;2023-02-26T00:45:14;32.43;30.58;34.64;;
67324;Laerm;57667;51.438;5.968;2023-02-26T00:45:25;32.44;30.50;34.67;;
67324;Laerm;57667;51.438;5.968;2023-02-26T00:45:36;32.62;30.27;37.29;;
67324;Laerm;57667;51.438;5.968;2023-02-26T00:45:56;32.69;30.70;37.38;;
67324;Laerm;57667;51.438;5.968;2023-02-26T00:46:28;31.58;30.21;33.67;;
67324;Laerm;57667;51.438;5.968;2023-02-26T00:46:43;32.32;29.77;36.34;;
67324;Laerm;57667;51.438;5.968;2023-02-26T00:46:59;33.51;30.96;37.51;;
67324;Laerm;57667;51.438;5.968;2023-02-26T00:47:17;32.69;30.37;36.79;;
67324;Laerm;57667;51.438;5.968;2023-02-26T00:48:20;31.26;30.18;32.24;;
67324;Laerm;57667;51.438;5.968;2023-02-26T00:48:51;31.31;29.96;34.17;;
67324;Laerm;57667;51.438;5.968;2023-02-26T00:49:25;30.90;29.75;32.07;;
67324;Laerm;57667;51.438;5.968;2023-02-26T00:50:19;31.02;29.65;32.52;;
67324;Laerm;57667;51.438;5.968;2023-02-26T00:50:30;31.03;29.62;35.46;;
67324;Laerm;57667;51.438;5.968;2023-02-26T00:50:46;30.85;29.61;31.98;;
67324;Laerm;57667;51.438;5.968;2023-02-26T00:50:59;30.73;29.42;32.08;;
67324;Laerm;57667;51.438;5.968;2023-02-26T00:51:47;31.79;30.25;34.07;;
67324;Laerm;57667;51.438;5.968;2023-02-26T00:51:58;31.34;29.69;33.16;;
67324;Laerm;57667;51.438;5.968;2023-02-26T00:52:19;30.91;29.47;32.09;;
67324;Laerm;57667;51.438;5.968;2023-02-26T00:54:23;30.74;29.47;32.03;;
67324;Laerm;57667;51.438;5.968;2023-02-26T00:54:28;31.02;29.81;36.72;;
67324;Laerm;57667;51.438;5.968;2023-02-26T00:54:34;30.74;29.63;32.39;;
67324;Laerm;57667;51.438;5.968;2023-02-26T00:54:45;30.81;29.66;32.03;;
67324;Laerm;57667;51.438;5.968;2023-02-26T00:54:55;30.90;29.83;32.49;;
67324;Laerm;57667;51.438;5.968;2023-02-26T00:55:05;30.86;29.56;32.14;;
67324;Laerm;57667;51.438;5.968;2023-02-26T00:55:16;30.90;29.70;32.01;;
67324;Laerm;57667;51.438;5.968;2023-02-26T00:55:26;31.05;29.41;32.19;;
67324;Laerm;57667;51.438;5.968;2023-02-26T00:55:37;31.05;29.59;32.64;;
67324;Laerm;57667;51.438;5.968;2023-02-26T00:55:47;30.99;29.72;32.52;;
67324;Laerm;57667;51.438;5.968;2023-02-26T00:55:58;31.17;29.94;32.40;;
67324;Laerm;57667;51.438;5.968;2023-02-26T00:56:08;30.93;29.71;32.49;;
67324;Laerm;57667;51.438;5.968;2023-02-26T00:56:18;31.77;30.03;35.34;;
67324;Laerm;57667;51.438;5.968;2023-02-26T00:56:28;30.86;29.36;32.50;;
67324;Laerm;57667;51.438;5.968;2023-02-26T00:56:39;31.05;29.61;33.69;;
67324;Laerm;57667;51.438;5.968;2023-02-26T00:56:49;31.65;30.28;33.48;;
67324;Laerm;57667;51.438;5.968;2023-02-26T00:57:00;31.05;29.33;34.94;;
67324;Laerm;57667;51.438;5.968;2023-02-26T00:57:13;30.63;29.49;32.46;;
67324;Laerm;57667;51.438;5.968;2023-02-26T00:57:23;30.72;29.47;32.20;;
67324;Laerm;57667;51.438;5.968;2023-02-26T00:57:33;30.77;29.59;32.28;;
67324;Laerm;57667;51.438;5.968;2023-02-26T00:57:44;30.60;29.46;31.75;;
67324;Laerm;57667;51.438;5.968;2023-02-26T00:57:54;30.55;29.40;31.66;;
67324;Laerm;57667;51.438;5.968;2023-02-26T00:58:05;30.53;29.70;31.93;;
67324;Laerm;57667;51.438;5.968;2023-02-26T00:58:15;30.63;29.54;32.28;;
67324;Laerm;57667;51.438;5.968;2023-02-26T00:58:25;30.90;29.45;32.02;;
67324;Laerm;57667;51.438;5.968;2023-02-26T00:58:36;30.94;29.13;32.30;;
67324;Laerm;57667;51.438;5.968;2023-02-26T00:58:46;30.90;29.47;32.37;;
67324;Laerm;57667;51.438;5.968;2023-02-26T00:58:56;30.80;29.57;32.45;;
67324;Laerm;57667;51.438;5.968;2023-02-26T00:59:07;30.98;29.65;32.42;;
67324;Laerm;57667;51.438;5.968;2023-02-26T00:59:17;30.81;29.57;31.88;;
67324;Laerm;57667;51.438;5.968;2023-02-26T00:59:28;30.86;29.73;32.58;;
67324;Laerm;57667;51.438;5.968;2023-02-26T00:59:38;30.59;29.36;31.66;;
67324;Laerm;57667;51.438;5.968;2023-02-26T00:59:49;30.68;29.61;31.76;;
67324;Laerm;57667;51.438;5.968;2023-02-26T00:59:59;30.89;29.58;34.44;;
67324;Laerm;57667;51.438;5.968;2023-02-26T01:00:09;31.16;29.53;33.66;;
67324;Laerm;57667;51.438;5.968;2023-02-26T01:00:20;31.24;29.78;32.65;;
67324;Laerm;57667;51.438;5.968;2023-02-26T01:00:31;30.93;29.69;32.21;;
67324;Laerm;57667;51.438;5.968;2023-02-26T01:00:41;30.67;29.30;32.32;;
67324;Laerm;57667;51.438;5.968;2023-02-26T01:00:51;30.91;29.60;32.34;;
67324;Laerm;57667;51.438;5.968;2023-02-26T01:01:02;31.23;30.03;32.95;;
67324;Laerm;57667;51.438;5.968;2023-02-26T01:01:12;31.21;29.76;32.97;;
67324;Laerm;57667;51.438;5.968;2023-02-26T01:01:22;31.08;29.85;32.93;;
67324;Laerm;57667;51.438;5.968;2023-02-26T01:01:33;31.26;29.95;32.41;;
67324;Laerm;57667;51.438;5.968;2023-02-26T01:01:43;30.92;29.68;32.06;;
67324;Laerm;57667;51.438;5.968;2023-02-26T01:01:54;31.11;29.97;32.96;;
67324;Laerm;57667;51.438;5.968;2023-02-26T01:02:04;31.55;29.96;33.06;;
67324;Laerm;57667;51.438;5.968;2023-02-26T01:02:14;31.20;29.95;32.60;;
67324;Laerm;57667;51.438;5.968;2023-02-26T01:02:25;31.14;29.91;32.52;;
67324;Laerm;57667;51.438;5.968;2023-02-26T01:02:36;31.73;29.94;34.22;;
67324;Laerm;57667;51.438;5.968;2023-02-26T01:02:47;31.06;29.64;32.57;;
67324;Laerm;57667;51.438;5.968;2023-02-26T01:02:59;31.05;29.88;32.52;;
67324;Laerm;57667;51.438;5.968;2023-02-26T01:03:10;31.33;30.03;32.89;;
67324;Laerm;57667;51.438;5.968;2023-02-26T01:03:21;30.85;29.35;32.04;;
67324;Laerm;57667;51.438;5.968;2023-02-26T01:03:38;30.62;29.33;31.83;;
67324;Laerm;57667;51.438;5.968;2023-02-26T01:03:48;30.87;29.45;33.63;;
67324;Laerm;57667;51.438;5.968;2023-02-26T01:04:00;31.41;29.81;33.98;;
67324;Laerm;57667;51.438;5.968;2023-02-26T01:04:18;31.52;29.76;33.06;;
67324;Laerm;57667;51.438;5.968;2023-02-26T01:04:35;31.92;30.23;36.32;;
67324;Laerm;57667;51.438;5.968;2023-02-26T01:04:45;31.47;30.25;32.95;;
67324;Laerm;57667;51.438;5.968;2023-02-26T01:04:57;31.14;29.84;32.40;;
67324;Laerm;57667;51.438;5.968;2023-02-26T01:05:08;31.21;30.18;32.61;;
67324;Laerm;57667;51.438;5.968;2023-02-26T01:05:19;31.49;29.92;34.03;;
67324;Laerm;57667;51.438;5.968;2023-02-26T01:05:30;31.58;29.82;33.06;;
67324;Laerm;57667;51.438;5.968;2023-02-26T01:05:40;32.10;30.63;34.55;;
67324;Laerm;57667;51.438;5.968;2023-02-26T01:05:51;32.37;30.46;34.97;;
67324;Laerm;57667;51.438;5.968;2023-02-26T01:06:02;32.17;30.52;34.42;;
67324;Laerm;57667;51.438;5.968;2023-02-26T01:06:12;32.42;30.87;34.65;;
67324;Laerm;57667;51.438;5.968;2023-02-26T01:06:29;33.59;31.21;36.64;;
67324;Laerm;57667;51.438;5.968;2023-02-26T01:06:45;34.70;30.98;37.37;;
67324;Laerm;57667;51.438;5.968;2023-02-26T01:06:56;52.51;36.56;60.91;;
67324;Laerm;57667;51.438;5.968;2023-02-26T01:07:07;50.01;39.15;57.99;;
67324;Laerm;57667;51.438;5.968;2023-02-26T01:07:19;40.63;32.69;46.29;;
67324;Laerm;57667;51.438;5.968;2023-02-26T01:07:36;32.15;30.67;35.09;;
67324;Laerm;57667;51.438;5.968;2023-02-26T01:08:10;31.15;29.69;33.53;;
67324;Laerm;57667;51.438;5.968;2023-02-26T01:08:23;30.95;29.60;32.79;;
67324;Laerm;57667;51.438;5.968;2023-02-26T01:08:54;31.17;29.92;32.86;;
67324;Laerm;57667;51.438;5.968;2023-02-26T01:09:11;31.22;29.82;33.31;;
67324;Laerm;57667;51.438;5.968;2023-02-26T01:09:24;31.31;29.61;32.93;;
67324;Laerm;57667;51.438;5.968;2023-02-26T01:09:35;31.42;30.09;32.72;;
67324;Laerm;57667;51.438;5.968;2023-02-26T01:09:46;31.22;29.78;32.58;;
67324;Laerm;57667;51.438;5.968;2023-02-26T01:09:56;31.20;30.11;33.00;;
67324;Laerm;57667;51.438;5.968;2023-02-26T01:10:07;31.34;30.09;32.73;;
67324;Laerm;57667;51.438;5.968;2023-02-26T01:10:18;31.61;30.03;33.55;;
67324;Laerm;57667;51.438;5.968;2023-02-26T01:10:28;31.48;30.17;33.28;;
67324;Laerm;57667;51.438;5.968;2023-02-26T01:10:39;31.87;30.04;33.53;;
67324;Laerm;57667;51.438;5.968;2023-02-26T01:10:50;31.81;30.34;36.43;;
67324;Laerm;57667;51.438;5.968;2023-02-26T01:11:00;31.81;30.45;33.22;;
67324;Laerm;57667;51.438;5.968;2023-02-26T01:11:11;32.01;30.08;35.12;;
67324;Laerm;57667;51.438;5.968;2023-02-26T01:11:21;31.55;30.31;32.67;;
67324;Laerm;57667;51.438;5.968;2023-02-26T01:11:33;31.62;29.99;33.53;;
67324;Laerm;57667;51.438;5.968;2023-02-26T01:11:44;31.56;30.20;33.15;;
67324;Laerm;57667;51.438;5.968;2023-02-26T01:11:55;31.56;30.06;32.82;;
67324;Laerm;57667;51.438;5.968;2023-02-26T01:12:06;31.39;29.79;33.46;;
67324;Laerm;57667;51.438;5.968;2023-02-26T01:12:17;31.84;29.98;33.76;;
67324;Laerm;57667;51.438;5.968;2023-02-26T01:12:28;32.05;30.21;33.91;;
67324;Laerm;57667;51.438;5.968;2023-02-26T01:12:39;31.62;30.18;33.37;;
67324;Laerm;57667;51.438;5.968;2023-02-26T01:12:49;31.07;29.78;32.40;;